createdAt,value
2022-08-12T00:04:20.991Z,2.28
2022-08-12T00:09:41.239Z,1.90
2022-08-12T00:15:02.586Z,1.95
2022-08-12T00:20:24.424Z,2.17
2022-08-12T00:26:22.395Z,3.63
2022-08-12T00:31:43.043Z,3.58
2022-08-12T00:37:32.473Z,2.65
2022-08-12T00:42:37.927Z,2.28
2022-08-12T00:47:40.318Z,2.97
2022-08-12T00:52:44.573Z,2.30
2022-08-12T00:57:49.567Z,2.03
2022-08-12T01:02:55.613Z,2.03
2022-08-12T01:08:16.664Z,2.17
2022-08-12T01:13:20.622Z,2.42
2022-08-12T01:18:33.850Z,2.03
2022-08-12T01:23:38.398Z,2.30
2022-08-12T01:28:42.724Z,2.20
2022-08-12T01:34:28.753Z,2.20
2022-08-12T01:55:48.242Z,3.40
2022-08-12T02:01:01.355Z,2.28
2022-08-12T02:06:28.804Z,2.95
2022-08-12T02:11:39.606Z,2.15
2022-08-12T02:17:05.436Z,2.08
2022-08-12T02:22:41.499Z,2.42
2022-08-12T02:27:46.718Z,4.68
2022-08-12T02:32:52.040Z,3.42
2022-08-12T02:37:56.127Z,2.60
2022-08-12T02:43:19.002Z,2.30
2022-08-12T02:48:30.819Z,2.30
2022-08-12T02:53:34.407Z,3.03
2022-08-12T02:58:41.399Z,2.97
2022-08-12T03:03:52.816Z,5.70
2022-08-12T03:08:58.553Z,3.10
2022-08-12T03:14:02.853Z,2.40
2022-08-12T03:19:06.523Z,2.65
2022-08-12T03:24:09.546Z,2.33
2022-08-12T03:29:12.294Z,2.45
2022-08-12T03:34:23.497Z,2.97
2022-08-12T03:39:41.423Z,2.50
2022-08-12T03:45:12.359Z,2.80
2022-08-12T03:50:33.270Z,2.55
2022-08-12T03:55:55.080Z,2.67
2022-08-12T04:00:58.703Z,2.83
2022-08-12T04:06:00.486Z,2.70
2022-08-12T04:11:21.623Z,3.08
2022-08-12T04:16:23.714Z,2.88
2022-08-12T04:21:26.059Z,3.05
2022-08-12T04:26:31.181Z,2.60
2022-08-12T04:31:39.913Z,3.00
2022-08-12T04:36:44.258Z,2.47
2022-08-12T04:41:54.418Z,3.28
2022-08-12T04:47:00.586Z,7.10
2022-08-12T04:52:03.263Z,6.22
2022-08-12T04:57:09.437Z,6.53
2022-08-12T05:02:16.742Z,4.70
2022-08-12T05:07:23.325Z,4.53
2022-08-12T05:12:28.353Z,3.38
2022-08-12T05:17:30.341Z,3.20
2022-08-12T05:22:37.163Z,3.53
2022-08-12T05:27:57.940Z,2.92
2022-08-12T05:33:05.240Z,2.97
2022-08-12T05:38:26.716Z,3.35
2022-08-12T05:43:36.552Z,3.80
2022-08-12T05:48:38.692Z,3.70
2022-08-12T05:53:41.525Z,4.20
2022-08-12T05:58:43.616Z,3.70
2022-08-12T06:03:50.889Z,3.78
2022-08-12T06:08:54.082Z,4.32
2022-08-12T06:13:58.505Z,4.03
2022-08-12T06:19:00.913Z,3.80
2022-08-12T06:24:03.128Z,3.97
2022-08-12T06:29:06.739Z,3.95
2022-08-12T06:35:25.501Z,7.95
2022-08-12T06:39:32.638Z,8.02
2022-08-12T06:44:34.919Z,5.43
2022-08-12T06:49:36.979Z,5.13
2022-08-12T06:54:45.061Z,2.70
2022-08-12T06:59:47.462Z,3.00
2022-08-12T07:04:49.819Z,2.95
2022-08-12T07:10:04.419Z,2.83
2022-08-12T07:15:10.241Z,2.65
2022-08-12T07:20:51.068Z,2.25
2022-08-12T07:25:40.723Z,2.85
2022-08-12T07:30:44.964Z,2.80
2022-08-12T07:35:48.126Z,2.17
2022-08-12T07:40:53.655Z,2.78
2022-08-12T07:45:56.172Z,2.17
2022-08-12T07:50:59.291Z,2.22
2022-08-12T07:56:02.422Z,1.88
2022-08-12T08:01:05.802Z,2.13
2022-08-12T08:06:19.913Z,2.10
2022-08-12T08:11:41.874Z,1.70
2022-08-12T08:16:44.060Z,2.15
2022-08-12T08:21:46.543Z,1.80
2022-08-12T08:26:52.198Z,1.80
2022-08-12T08:31:55.457Z,1.92
2022-08-12T08:36:57.804Z,2.10
2022-08-12T08:42:20.707Z,2.28
2022-08-12T08:47:25.579Z,2.13
2022-08-12T08:52:38.957Z,2.13
2022-08-12T08:57:45.449Z,2.30
2022-08-12T09:02:58.602Z,2.05
2022-08-12T09:14:12.336Z,1.88
2022-08-12T09:18:53.728Z,1.48
2022-08-12T09:24:07.643Z,1.70
2022-08-12T09:29:14.161Z,1.60
2022-08-12T09:34:27.909Z,1.80
2022-08-12T09:40:06.529Z,1.75
2022-08-12T09:45:19.491Z,1.52
2022-08-12T09:50:26.153Z,1.88
2022-08-12T09:56:06.218Z,1.30
2022-08-12T10:00:52.709Z,1.65
2022-08-12T10:06:20.511Z,1.52
2022-08-12T10:12:07.800Z,1.38
2022-08-12T10:16:58.304Z,1.70
2022-08-12T10:22:01.623Z,1.60
2022-08-12T10:27:24.045Z,1.75
2022-08-12T10:32:44.080Z,1.48
2022-08-12T10:38:37.215Z,1.60
2022-08-12T10:43:56.493Z,1.35
2022-08-12T10:48:58.288Z,1.30
2022-08-12T10:54:08.360Z,1.52
2022-08-12T10:59:18.341Z,1.40
2022-08-12T11:04:49.684Z,1.70
2022-08-12T11:10:00.258Z,1.33
2022-08-12T11:15:19.410Z,1.48
2022-08-12T11:20:30.499Z,1.30
2022-08-12T11:25:55.563Z,1.73
2022-08-12T11:30:54.545Z,1.13
2022-08-12T11:41:31.092Z,1.58
2022-08-12T11:46:37.714Z,1.42
2022-08-12T11:51:39.985Z,1.23
2022-08-12T11:56:42.862Z,1.20
2022-08-12T12:02:01.648Z,1.50
2022-08-12T12:07:07.325Z,1.10
2022-08-12T12:12:09.648Z,1.20
2022-08-12T12:17:11.484Z,1.08
2022-08-12T12:22:15.601Z,1.42
2022-08-12T12:27:40.171Z,1.40
2022-08-12T12:32:53.196Z,0.95
2022-08-12T12:38:04.190Z,1.50
2022-08-12T12:43:10.269Z,1.17
2022-08-12T12:48:15.423Z,1.25
2022-08-12T12:54:06.519Z,1.10
2022-08-12T12:58:44.222Z,1.30
2022-08-12T13:03:49.019Z,1.60
2022-08-12T13:09:02.970Z,1.08
2022-08-12T13:14:12.538Z,1.20
2022-08-12T13:19:17.433Z,1.50
2022-08-12T13:24:40.204Z,1.02
2022-08-12T13:29:41.925Z,1.65
2022-08-12T13:34:45.468Z,1.30
2022-08-12T13:39:54.012Z,1.27
2022-08-12T13:44:55.835Z,1.00
2022-08-12T13:49:59.851Z,1.15
2022-08-12T13:55:02.248Z,1.10
2022-08-12T14:00:09.827Z,1.33
2022-08-12T14:05:31.011Z,1.10
2022-08-12T14:10:50.921Z,1.23
2022-08-12T14:15:55.627Z,1.02
2022-08-12T14:21:12.437Z,1.27
2022-08-12T14:26:26.310Z,1.30
2022-08-12T14:31:31.954Z,1.05
2022-08-12T14:36:34.359Z,1.02
2022-08-12T14:41:48.339Z,1.02
2022-08-12T14:46:59.346Z,1.40
2022-08-12T14:57:24.094Z,1.13
2022-08-12T15:02:28.745Z,1.38
2022-08-12T15:07:34.151Z,1.05
2022-08-12T15:12:52.584Z,1.20
2022-08-12T15:18:02.173Z,1.25
2022-08-12T15:23:05.874Z,1.30
2022-08-12T15:28:28.664Z,1.25
2022-08-12T15:33:44.643Z,1.10
2022-08-12T15:38:47.482Z,1.50
2022-08-12T15:44:16.198Z,1.20
2022-08-12T15:49:17.203Z,1.00
2022-08-12T15:54:34.057Z,1.00
2022-08-12T15:59:59.998Z,1.05
2022-08-12T16:05:00.004Z,0.90
2022-08-12T16:10:06.558Z,0.80
2022-08-12T16:15:11.923Z,0.93
2022-08-12T16:20:33.232Z,1.17
2022-08-12T16:26:03.017Z,0.85
2022-08-12T16:30:57.722Z,0.63
2022-08-12T16:35:59.423Z,1.20
2022-08-12T16:41:01.672Z,1.00
2022-08-12T16:46:32.321Z,1.00
2022-08-12T16:51:27.009Z,0.80
2022-08-12T16:56:29.116Z,0.77
2022-08-12T17:01:34.978Z,1.13
2022-08-12T17:06:44.214Z,0.70
2022-08-12T17:11:49.596Z,1.10
2022-08-12T17:16:54.720Z,0.70
2022-08-12T17:22:02.101Z,0.85
2022-08-12T17:27:16.488Z,0.90
2022-08-12T17:32:22.228Z,0.77
2022-08-12T17:37:30.260Z,0.80
2022-08-12T17:42:37.803Z,1.17
2022-08-12T17:47:40.679Z,0.73
2022-08-12T17:52:44.802Z,0.90
2022-08-12T17:57:55.380Z,0.55
2022-08-12T18:02:58.295Z,0.70
2022-08-12T18:08:05.404Z,0.80
2022-08-12T18:13:40.830Z,0.70
2022-08-12T18:18:39.178Z,0.60
2022-08-12T18:23:53.791Z,0.80
2022-08-12T18:28:56.693Z,0.70
2022-08-12T18:34:03.123Z,0.90
2022-08-12T18:39:04.962Z,1.08
2022-08-12T18:44:12.119Z,0.60
2022-08-12T18:49:38.609Z,0.70
2022-08-12T18:54:48.879Z,0.85
2022-08-12T19:00:01.083Z,0.90
2022-08-12T19:05:10.737Z,0.80
2022-08-12T19:10:13.761Z,0.77
2022-08-12T19:15:15.436Z,1.00
2022-08-12T19:20:19.031Z,0.70
2022-08-12T19:25:59.374Z,0.90
2022-08-12T19:31:07.017Z,1.00
2022-08-12T19:36:25.243Z,0.85
2022-08-12T19:41:42.971Z,0.90
2022-08-12T19:46:53.013Z,0.70
2022-08-12T19:51:55.441Z,0.80
2022-08-12T19:56:58.514Z,1.00
2022-08-12T20:02:04.940Z,0.80
2022-08-12T20:07:23.905Z,1.10
2022-08-12T20:12:44.700Z,1.23
2022-08-12T20:17:57.582Z,1.27
2022-08-12T20:23:08.611Z,1.05
2022-08-12T20:28:11.138Z,1.55
2022-08-12T20:33:17.734Z,1.90
2022-08-12T20:38:26.691Z,1.48
2022-08-12T20:43:32.183Z,2.10
2022-08-12T20:48:35.273Z,1.33
2022-08-12T20:53:58.434Z,1.75
2022-08-12T20:59:20.053Z,1.88
2022-08-12T21:04:43.830Z,1.48
2022-08-12T21:09:47.949Z,2.83
2022-08-12T21:15:00.105Z,1.25
2022-08-12T21:20:22.457Z,1.08
2022-08-12T21:25:24.689Z,2.70
2022-08-12T21:30:43.203Z,1.30
2022-08-12T21:36:09.199Z,1.25
2022-08-12T21:41:24.695Z,1.40
2022-08-12T21:46:34.950Z,1.45
2022-08-12T21:51:49.908Z,1.60
2022-08-12T21:56:55.633Z,2.58
2022-08-12T22:01:57.318Z,2.60
2022-08-12T22:06:59.635Z,3.10
2022-08-12T22:12:21.039Z,2.67
2022-08-12T22:17:33.811Z,1.00
2022-08-12T22:22:53.785Z,1.95
2022-08-12T22:28:16.864Z,2.53
2022-08-12T22:33:26.180Z,1.33
2022-08-12T22:38:29.633Z,1.48
2022-08-12T22:44:00.470Z,1.10
2022-08-12T22:49:06.637Z,1.10
2022-08-12T22:54:36.033Z,1.38
2022-08-12T22:59:33.799Z,1.50
2022-08-12T23:04:55.344Z,1.30
2022-08-12T23:09:57.636Z,1.58
2022-08-12T23:14:59.438Z,1.38
2022-08-12T23:20:01.831Z,1.40
2022-08-12T23:25:03.900Z,1.60
2022-08-12T23:30:19.183Z,1.30
2022-08-12T23:35:45.505Z,1.20
2022-08-12T23:40:48.887Z,1.63
2022-08-12T23:46:00.399Z,1.38
2022-08-12T23:51:03.916Z,1.38
2022-08-12T23:56:25.329Z,1.40
